F/V Cote D'ambre — FPEY — position and weather

sailwx.info

Track history (hours):
 
Tides and Currents Weather Stations Pressure Air Temp Water Temp Dewpoint Dewpoint Depression Visibility Wind Speed Wind Dir Waves Ship Positions

F/V Cote D'ambre

Last reported at 2015-Jan-29 04:32 UTC. Time now 2015-Jan-29 16:19 UTC.
Position N 47°44' W 003°22'.

Length 16 m; draft 4 m.

Type: Fishing. MMSI: 227128800.

Date/timePositionNaut miles runAvg speedWind from/ knotsBaromVisibWave heightAir tempDewpointWater temp
2015-Jan-29 04:32N 47°44' W 003°22'0 0.0
2015-Jan-29 03:32N 47°44' W 003°22'0 0.0
2015-Jan-29 02:32N 47°44' W 003°22'5 5.5
2015-Jan-29 01:33N 47°38' W 003°22'5 5.2
2015-Jan-29 00:34N 47°33' W 003°24'3 0.2
2015-Jan-28 05:31N 47°31' W 003°27'7 7.3
2015-Jan-28 04:34N 47°37' W 003°22'6 6.3
2015-Jan-28 03:33N 47°44' W 003°22'0 0.1
2015-Jan-28 02:28N 47°44' W 003°22'2 2.6
2015-Jan-28 01:33N 47°41' W 003°22'9 8.6
2015-Jan-28 00:33N 47°33' W 003°23'9 8.8
2015-Jan-27 23:30N 47°24' W 003°24'12 0.3
2015-Jan-26 05:05N 47°35' W 003°22'4 8.3
2015-Jan-26 04:33N 47°40' W 003°22'4 0.1
2015-Jan-24 06:33N 47°44' W 003°22'0 0.0
2015-Jan-24 05:33N 47°44' W 003°22'0 0.0
2015-Jan-24 04:33N 47°44' W 003°22'0 0.1
2015-Jan-24 03:33N 47°44' W 003°22'0 0.1
2015-Jan-24 02:32N 47°44' W 003°22'0 0.0
2015-Jan-24 01:32N 47°44' W 003°22'5 5.2
2015-Jan-24 00:34N 47°39' W 003°22'0 0.0
2015-Jan-22 03:34N 47°39' W 003°22'5 5.0
2015-Jan-22 02:33N 47°44' W 003°22'4 4.4
2015-Jan-22 01:33N 47°40' W 003°26'11 0.8
2015-Jan-21 10:33N 47°32' W 003°38'11 1.8
2015-Jan-21 04:33N 47°35' W 003°23'8 7.7
2015-Jan-21 03:34N 47°43' W 003°22'1 1.2
2015-Jan-21 02:33N 47°44' W 003°22'6 6.1
2015-Jan-21 01:33N 47°38' W 003°23'7 6.5
2015-Jan-21 00:31N 47°34' W 003°32'3 2.9
2015-Jan-20 23:31N 47°31' W 003°32'11 0.6
2015-Jan-20 04:33N 47°40' W 003°22'4 3.7
2015-Jan-20 03:29N 47°44' W 003°22'0 0.2
2015-Jan-20 02:33N 47°44' W 003°22'8 7.9
2015-Jan-20 01:33N 47°36' W 003°25'1 0.1
2015-Jan-19 05:22N 47°36' W 003°22'7 8.8
2015-Jan-19 04:33N 47°43' W 003°22'  
Track history (hours):
 
Tides and Currents Weather Stations Pressure Air Temp Water Temp Dewpoint Dewpoint Depression Visibility Wind Speed Wind Dir Waves Ship Positions

F/V Cote D'ambre

Last reported at 2015-Jan-29 04:32 UTC. Time now 2015-Jan-29 16:19 UTC.
Position N 47°44' W 003°22'.

Length 16 m; draft 4 m.

Type: Fishing. MMSI: 227128800.

Date/timePositionNaut miles runAvg speedWind from/ knotsBaromVisibWave heightAir tempDewpointWater temp
2015-Jan-29 04:32N 47°44' W 003°22'0 0.0
2015-Jan-29 03:32N 47°44' W 003°22'0 0.0
2015-Jan-29 02:32N 47°44' W 003°22'5 5.5
2015-Jan-29 01:33N 47°38' W 003°22'5 5.2
2015-Jan-29 00:34N 47°33' W 003°24'3 0.2
2015-Jan-28 05:31N 47°31' W 003°27'7 7.3
2015-Jan-28 04:34N 47°37' W 003°22'6 6.3
2015-Jan-28 03:33N 47°44' W 003°22'0 0.1
2015-Jan-28 02:28N 47°44' W 003°22'2 2.6
2015-Jan-28 01:33N 47°41' W 003°22'9 8.6
2015-Jan-28 00:33N 47°33' W 003°23'9 8.8
2015-Jan-27 23:30N 47°24' W 003°24'12 0.3
2015-Jan-26 05:05N 47°35' W 003°22'4 8.3
2015-Jan-26 04:33N 47°40' W 003°22'4 0.1
2015-Jan-24 06:33N 47°44' W 003°22'0 0.0
2015-Jan-24 05:33N 47°44' W 003°22'0 0.0
2015-Jan-24 04:33N 47°44' W 003°22'0 0.1
2015-Jan-24 03:33N 47°44' W 003°22'0 0.1
2015-Jan-24 02:32N 47°44' W 003°22'0 0.0
2015-Jan-24 01:32N 47°44' W 003°22'5 5.2
2015-Jan-24 00:34N 47°39' W 003°22'0 0.0
2015-Jan-22 03:34N 47°39' W 003°22'5 5.0
2015-Jan-22 02:33N 47°44' W 003°22'4 4.4
2015-Jan-22 01:33N 47°40' W 003°26'11 0.8
2015-Jan-21 10:33N 47°32' W 003°38'11 1.8
2015-Jan-21 04:33N 47°35' W 003°23'8 7.7
2015-Jan-21 03:34N 47°43' W 003°22'1 1.2
2015-Jan-21 02:33N 47°44' W 003°22'6 6.1
2015-Jan-21 01:33N 47°38' W 003°23'7 6.5
2015-Jan-21 00:31N 47°34' W 003°32'3 2.9
2015-Jan-20 23:31N 47°31' W 003°32'11 0.6
2015-Jan-20 04:33N 47°40' W 003°22'4 3.7
2015-Jan-20 03:29N 47°44' W 003°22'0 0.2
2015-Jan-20 02:33N 47°44' W 003°22'8 7.9
2015-Jan-20 01:33N 47°36' W 003°25'1 0.1
2015-Jan-19 05:22N 47°36' W 003°22'7 8.8
2015-Jan-19 04:33N 47°43' W 003°22'  

Dump ship's entire track history